createdAt,value
2019-02-15T00:02:00.000Z,4.90
2019-02-15T00:07:11.855Z,5.17
2019-02-15T00:12:23.251Z,6.30
2019-02-15T00:17:54.263Z,5.63
2019-02-15T00:23:07.791Z,6.17
2019-02-15T00:28:20.027Z,5.30
2019-02-15T00:33:31.539Z,5.10
2019-02-15T00:38:44.101Z,4.93
2019-02-15T00:43:57.238Z,4.87
2019-02-15T00:49:08.528Z,4.73
2019-02-15T01:00:21.832Z,3.70
2019-02-15T01:05:53.002Z,4.93
2019-02-15T01:11:19.212Z,5.70
2019-02-15T01:16:31.175Z,4.10
2019-02-15T01:21:42.627Z,5.00
2019-02-15T01:26:57.448Z,4.90
2019-02-15T01:32:28.143Z,4.80
2019-02-15T01:37:58.776Z,5.17
2019-02-15T01:43:27.940Z,5.27
2019-02-15T01:48:38.026Z,3.97
2019-02-15T01:53:56.896Z,5.10
2019-02-15T01:59:08.943Z,4.90
2019-02-15T02:04:20.542Z,4.97
2019-02-15T02:09:32.358Z,4.43
2019-02-15T02:14:43.655Z,4.50
2019-02-15T02:19:55.109Z,4.50
2019-02-15T02:25:06.975Z,5.00
2019-02-15T02:30:18.982Z,4.43
2019-02-15T02:35:30.824Z,4.67
2019-02-15T02:40:42.739Z,4.37
2019-02-15T02:45:54.847Z,4.20
2019-02-15T02:51:06.711Z,4.27
2019-02-15T02:56:18.571Z,3.90
2019-02-15T03:01:30.100Z,4.80
2019-02-15T03:06:42.117Z,5.17
2019-02-15T03:11:53.372Z,4.97
2019-02-15T03:17:04.901Z,4.63
2019-02-15T03:22:16.932Z,4.10
2019-02-15T03:27:28.860Z,4.30
2019-02-15T03:32:40.689Z,4.47
2019-02-15T03:38:17.579Z,4.40
2019-02-15T03:43:29.592Z,4.30
2019-02-15T03:48:41.421Z,4.80
2019-02-15T03:53:52.632Z,4.93
2019-02-15T03:59:04.703Z,5.20
2019-02-15T04:04:16.321Z,5.60
2019-02-15T04:09:27.619Z,5.13
2019-02-15T04:14:38.964Z,5.10
2019-02-15T04:19:50.948Z,4.90
2019-02-15T04:25:02.732Z,5.77
2019-02-15T04:30:14.569Z,5.17
2019-02-15T04:35:26.120Z,5.80
2019-02-15T04:40:38.363Z,5.10
2019-02-15T04:45:50.489Z,4.67
2019-02-15T04:51:02.568Z,5.10
2019-02-15T04:56:14.582Z,4.83
2019-02-15T05:01:14.332Z,5.03
2019-02-15T05:06:25.809Z,4.93
2019-02-15T05:11:37.079Z,5.57
2019-02-15T05:16:48.521Z,5.10
2019-02-15T05:21:59.784Z,6.17
2019-02-15T05:27:11.863Z,4.80
2019-02-15T05:32:23.359Z,5.87
2019-02-15T05:37:35.440Z,4.53
2019-02-15T05:42:47.270Z,5.63
2019-02-15T05:47:58.786Z,5.60
2019-02-15T05:53:11.105Z,5.10
2019-02-15T05:58:23.079Z,5.10
2019-02-15T06:03:36.111Z,6.20
2019-02-15T06:08:47.692Z,5.70
2019-02-15T06:13:57.899Z,5.30
2019-02-15T06:19:16.785Z,6.70
2019-02-15T06:24:28.876Z,6.10
2019-02-15T06:29:40.967Z,7.13
2019-02-15T06:34:52.669Z,6.00
2019-02-15T06:40:04.135Z,5.50
2019-02-15T06:45:24.363Z,5.33
2019-02-15T06:50:28.968Z,6.17
2019-02-15T06:55:41.007Z,6.40
2019-02-15T07:01:11.848Z,6.20
2019-02-15T07:06:23.857Z,6.60
2019-02-15T07:11:35.272Z,8.10
2019-02-15T07:16:46.696Z,15.10
2019-02-15T07:21:58.756Z,15.33
2019-02-15T07:27:10.771Z,8.83
2019-02-15T07:32:22.370Z,9.63
2019-02-15T07:37:34.442Z,9.57
2019-02-15T07:42:46.431Z,8.40
2019-02-15T07:47:58.611Z,8.73
2019-02-15T07:53:10.120Z,12.70
2019-02-15T07:58:22.248Z,10.50
2019-02-15T08:03:34.117Z,8.70
2019-02-15T08:08:45.866Z,7.43
2019-02-15T08:13:58.819Z,6.60
2019-02-15T08:19:11.639Z,7.37
2019-02-15T08:24:23.516Z,5.97
2019-02-15T08:29:35.357Z,6.00
2019-02-15T08:34:46.624Z,6.00
2019-02-15T08:39:58.304Z,6.40
2019-02-15T08:45:10.403Z,7.13
2019-02-15T08:50:22.536Z,6.83
2019-02-15T08:55:34.569Z,6.43
2019-02-15T09:00:46.600Z,5.73
2019-02-15T09:05:58.620Z,6.30
2019-02-15T09:11:10.618Z,5.60
2019-02-15T09:16:22.388Z,5.57
2019-02-15T09:21:33.968Z,7.33
2019-02-15T09:26:46.009Z,4.90
2019-02-15T09:31:57.359Z,6.30
2019-02-15T09:37:09.447Z,4.70
2019-02-15T09:42:21.432Z,4.40
2019-02-15T09:47:33.120Z,4.37
2019-02-15T09:58:16.440Z,4.83
2019-02-15T10:03:27.619Z,5.07
2019-02-15T10:08:39.708Z,4.20
2019-02-15T10:13:50.963Z,4.57
2019-02-15T10:19:02.364Z,4.40
2019-02-15T10:24:14.299Z,3.97
2019-02-15T10:29:26.307Z,4.40
2019-02-15T10:34:38.354Z,4.00
2019-02-15T10:39:50.544Z,4.07
2019-02-15T10:45:02.116Z,4.40
2019-02-15T10:50:13.932Z,3.60
2019-02-15T10:55:13.606Z,4.10
2019-02-15T11:00:32.590Z,4.00
2019-02-15T11:05:44.561Z,4.00
2019-02-15T11:10:44.223Z,3.40
2019-02-15T11:16:03.111Z,4.30
2019-02-15T11:21:15.028Z,3.33
2019-02-15T11:26:26.959Z,3.60
2019-02-15T11:31:38.952Z,4.07
2019-02-15T11:36:51.027Z,2.77
2019-02-15T11:42:02.987Z,2.80
2019-02-15T11:47:14.951Z,3.50
2019-02-15T11:52:26.488Z,3.47
2019-02-15T11:57:38.429Z,2.40
2019-02-15T12:02:50.308Z,3.47
2019-02-15T12:08:02.344Z,2.77
2019-02-15T12:13:14.643Z,2.27
2019-02-15T12:18:25.836Z,2.27
2019-02-15T12:23:37.912Z,2.30
2019-02-15T12:28:49.599Z,2.27
2019-02-15T12:33:59.559Z,1.90
2019-02-15T12:39:18.460Z,2.07
2019-02-15T12:44:30.132Z,2.43
2019-02-15T12:49:41.409Z,2.43
2019-02-15T12:54:53.705Z,1.80
2019-02-15T13:00:05.907Z,1.60
2019-02-15T13:05:17.179Z,2.67
2019-02-15T13:10:30.099Z,1.97
2019-02-15T13:15:43.959Z,1.93
2019-02-15T13:20:55.599Z,1.90
2019-02-15T13:26:08.800Z,1.60
2019-02-15T13:31:20.346Z,1.67
2019-02-15T13:36:32.204Z,1.60
2019-02-15T13:41:43.620Z,1.67
2019-02-15T13:46:43.263Z,1.50
2019-02-15T13:52:02.139Z,1.60
2019-02-15T13:57:13.792Z,0.93
2019-02-15T14:02:25.870Z,1.23
2019-02-15T14:07:37.603Z,1.57
2019-02-15T14:12:49.583Z,1.30
2019-02-15T14:18:01.762Z,1.50
2019-02-15T14:23:14.012Z,1.73
2019-02-15T14:28:25.964Z,2.00
2019-02-15T14:33:37.830Z,2.77
2019-02-15T14:38:49.253Z,2.40
2019-02-15T14:44:00.910Z,1.70
2019-02-15T14:49:12.531Z,2.13
2019-02-15T14:54:23.957Z,2.00
2019-02-15T14:59:35.564Z,2.10
2019-02-15T15:04:47.448Z,2.20
2019-02-15T15:09:59.178Z,2.13
2019-02-15T15:15:11.773Z,1.80
2019-02-15T15:20:23.709Z,1.40
2019-02-15T15:25:35.563Z,1.70
2019-02-15T15:30:47.183Z,1.70
2019-02-15T15:35:59.001Z,1.73
2019-02-15T15:41:10.608Z,1.40
2019-02-15T15:46:22.684Z,2.40
2019-02-15T15:51:34.163Z,1.97
2019-02-15T15:56:45.996Z,1.50
2019-02-15T16:01:57.976Z,2.50
2019-02-15T16:07:10.144Z,1.60
2019-02-15T16:12:21.878Z,2.20
2019-02-15T16:17:32.099Z,1.70
2019-02-15T16:22:50.992Z,2.20
2019-02-15T16:28:02.736Z,2.23
2019-02-15T16:33:14.045Z,2.30
2019-02-15T16:38:25.820Z,1.90
2019-02-15T16:43:37.029Z,2.13
2019-02-15T16:48:47.051Z,2.53
2019-02-15T16:54:05.938Z,2.90
2019-02-15T16:59:17.934Z,2.50
2019-02-15T17:04:29.843Z,2.50
2019-02-15T17:09:41.292Z,2.07
2019-02-15T17:14:53.692Z,2.50
2019-02-15T17:20:05.691Z,2.53
2019-02-15T17:25:17.815Z,6.03
2019-02-15T17:30:29.612Z,3.57
2019-02-15T17:35:41.423Z,3.67
2019-02-15T17:40:53.579Z,3.10
2019-02-15T17:46:05.716Z,6.10
2019-02-15T17:51:18.240Z,4.60
2019-02-15T17:56:30.390Z,5.87
2019-02-15T18:01:42.154Z,6.67
2019-02-15T18:06:53.887Z,5.10
2019-02-15T18:12:05.241Z,4.60
2019-02-15T18:17:17.499Z,4.63
2019-02-15T18:22:28.827Z,4.50
2019-02-15T18:27:40.108Z,3.63
2019-02-15T18:32:52.002Z,3.17
2019-02-15T18:37:51.753Z,7.20
2019-02-15T18:43:10.624Z,5.53
2019-02-15T18:48:22.712Z,4.20
2019-02-15T18:53:34.832Z,4.23
2019-02-15T18:58:47.067Z,3.80
2019-02-15T19:03:59.312Z,4.13
2019-02-15T19:09:11.136Z,3.00
2019-02-15T19:14:22.419Z,4.73
2019-02-15T19:19:34.343Z,3.53
2019-02-15T19:24:46.227Z,4.13
2019-02-15T19:29:59.068Z,3.13
2019-02-15T19:35:11.098Z,4.60
2019-02-15T19:40:22.450Z,3.07
2019-02-15T19:45:32.731Z,5.07
2019-02-15T19:50:44.793Z,4.90
2019-02-15T19:55:56.731Z,4.07
2019-02-15T20:01:08.023Z,4.80
2019-02-15T20:06:20.368Z,5.20
2019-02-15T20:11:32.559Z,3.40
2019-02-15T20:16:43.892Z,3.13
2019-02-15T20:21:43.553Z,3.57
2019-02-15T20:27:02.435Z,3.50
2019-02-15T20:32:14.332Z,3.07
2019-02-15T20:37:26.755Z,2.80
2019-02-15T20:42:38.347Z,4.60
2019-02-15T20:47:50.215Z,4.00
2019-02-15T20:53:02.215Z,4.63
2019-02-15T20:58:14.531Z,3.73
2019-02-15T21:03:25.715Z,3.63
2019-02-15T21:08:37.112Z,3.20
2019-02-15T21:13:49.102Z,2.97
2019-02-15T21:19:00.783Z,3.03
2019-02-15T21:24:12.411Z,3.10
2019-02-15T21:29:25.488Z,2.77
2019-02-15T21:34:37.482Z,2.50
2019-02-15T21:39:48.728Z,2.63
2019-02-15T21:44:59.952Z,3.00
2019-02-15T21:50:17.202Z,2.97
2019-02-15T21:55:12.642Z,2.50
2019-02-15T22:00:31.765Z,2.90
2019-02-15T22:05:43.764Z,2.40
2019-02-15T22:10:55.195Z,2.53
2019-02-15T22:16:07.109Z,2.80
2019-02-15T22:21:18.715Z,2.90
2019-02-15T22:26:18.388Z,2.50
2019-02-15T22:31:30.343Z,2.70
2019-02-15T22:36:43.172Z,2.80
2019-02-15T22:41:54.951Z,2.80
2019-02-15T22:47:06.625Z,2.33
2019-02-15T22:52:18.296Z,2.10
2019-02-15T22:57:29.575Z,2.70
2019-02-15T23:02:41.793Z,2.10
2019-02-15T23:07:53.608Z,2.47
2019-02-15T23:13:04.885Z,3.07
2019-02-15T23:18:18.813Z,2.97
2019-02-15T23:23:29.723Z,2.80
2019-02-15T23:28:41.411Z,2.87
2019-02-15T23:33:53.328Z,2.30
2019-02-15T23:39:05.068Z,3.20
2019-02-15T23:44:18.415Z,3.30
2019-02-15T23:49:31.019Z,3.70
2019-02-15T23:54:42.655Z,2.70
2019-02-15T23:59:54.456Z,3.50
